sensor_id;sensor_type;location;lat;lon;timestamp;pressure;altitude;pressure_sealevel;temperature;humidity
59409;BME280;45213;32.654;-115.458;2023-03-12T00:01:46;101326.09;;;27.99;33.04
59409;BME280;45213;32.654;-115.458;2023-03-12T00:04:12;101333.47;;;27.78;32.87
59409;BME280;45213;32.654;-115.458;2023-03-12T00:06:39;101337.41;;;27.70;33.40
59409;BME280;45213;32.654;-115.458;2023-03-12T00:09:05;101337.25;;;27.74;33.38
59409;BME280;45213;32.654;-115.458;2023-03-12T00:11:34;101344.75;;;27.67;33.20
59409;BME280;45213;32.654;-115.458;2023-03-12T00:14:00;101354.94;;;27.43;33.37
59409;BME280;45213;32.654;-115.458;2023-03-12T00:16:27;101355.09;;;27.40;33.51
59409;BME280;45213;32.654;-115.458;2023-03-12T00:18:55;101355.09;;;27.40;33.21
59409;BME280;45213;32.654;-115.458;2023-03-12T00:21:22;101365.47;;;27.11;33.42
59409;BME280;45213;32.654;-115.458;2023-03-12T00:23:49;101359.78;;;27.00;33.37
59409;BME280;45213;32.654;-115.458;2023-03-12T00:26:17;101357.13;;;27.00;33.11
59409;BME280;45213;32.654;-115.458;2023-03-12T00:28:44;101360.16;;;26.75;33.86
59409;BME280;45213;32.654;-115.458;2023-03-12T00:31:17;101363.06;;;26.70;33.48
59409;BME280;45213;32.654;-115.458;2023-03-12T00:33:45;101355.78;;;26.74;33.74
59409;BME280;45213;32.654;-115.458;2023-03-12T00:36:15;101364.66;;;26.74;33.44
59409;BME280;45213;32.654;-115.458;2023-03-12T00:38:42;101362.59;;;26.62;34.04
59409;BME280;45213;32.654;-115.458;2023-03-12T00:41:08;101359.25;;;26.57;34.27
59409;BME280;45213;32.654;-115.458;2023-03-12T00:43:35;101350.75;;;26.30;34.38
59409;BME280;45213;32.654;-115.458;2023-03-12T00:46:01;101362.91;;;26.37;34.45
59409;BME280;45213;32.654;-115.458;2023-03-12T00:48:28;101370.91;;;26.18;35.04
59409;BME280;45213;32.654;-115.458;2023-03-12T00:50:55;101372.97;;;26.11;35.41
59409;BME280;45213;32.654;-115.458;2023-03-12T00:53:21;101370.97;;;26.16;35.50
59409;BME280;45213;32.654;-115.458;2023-03-12T00:55:48;101374.44;;;25.99;35.56
59409;BME280;45213;32.654;-115.458;2023-03-12T00:58:14;101369.91;;;25.81;35.90
59409;BME280;45213;32.654;-115.458;2023-03-12T01:00:41;101375.88;;;25.86;35.99
59409;BME280;45213;32.654;-115.458;2023-03-12T01:03:08;101369.88;;;25.62;35.90
59409;BME280;45213;32.654;-115.458;2023-03-12T01:05:35;101369.94;;;25.60;35.97
59409;BME280;45213;32.654;-115.458;2023-03-12T01:08:07;101375.88;;;25.47;35.85
59409;BME280;45213;32.654;-115.458;2023-03-12T01:10:35;101371.00;;;25.36;36.50
59409;BME280;45213;32.654;-115.458;2023-03-12T01:13:01;101374.13;;;25.25;36.61
59409;BME280;45213;32.654;-115.458;2023-03-12T01:15:28;101367.22;;;25.21;36.38
59409;BME280;45213;32.654;-115.458;2023-03-12T01:17:55;101372.72;;;25.16;36.63
59409;BME280;45213;32.654;-115.458;2023-03-12T01:20:22;101371.50;;;25.03;37.15
59409;BME280;45213;32.654;-115.458;2023-03-12T01:22:48;101365.81;;;24.90;37.18
59409;BME280;45213;32.654;-115.458;2023-03-12T01:25:15;101368.81;;;24.83;37.84
59409;BME280;45213;32.654;-115.458;2023-03-12T01:27:42;101376.22;;;24.74;37.58
59409;BME280;45213;32.654;-115.458;2023-03-12T01:30:09;101376.44;;;24.70;37.99
59409;BME280;45213;32.654;-115.458;2023-03-12T01:32:36;101381.06;;;24.65;38.29
59409;BME280;45213;32.654;-115.458;2023-03-12T01:35:03;101389.34;;;24.57;38.77
59409;BME280;45213;32.654;-115.458;2023-03-12T01:37:31;101397.47;;;24.54;38.76
59409;BME280;45213;32.654;-115.458;2023-03-12T01:39:58;101402.31;;;24.43;38.92
59409;BME280;45213;32.654;-115.458;2023-03-12T01:42:25;101397.13;;;24.39;39.03
59409;BME280;45213;32.654;-115.458;2023-03-12T01:45:01;101409.72;;;24.34;39.44
59409;BME280;45213;32.654;-115.458;2023-03-12T01:47:30;101402.91;;;24.27;39.94
59409;BME280;45213;32.654;-115.458;2023-03-12T01:50:09;101412.19;;;24.17;40.36
59409;BME280;45213;32.654;-115.458;2023-03-12T01:52:37;101415.03;;;24.12;40.59
59409;BME280;45213;32.654;-115.458;2023-03-12T01:55:07;101437.38;;;24.07;40.87
59409;BME280;45213;32.654;-115.458;2023-03-12T01:57:48;101440.22;;;24.02;41.11
59409;BME280;45213;32.654;-115.458;2023-03-12T02:00:19;101451.97;;;23.96;41.29
59409;BME280;45213;32.654;-115.458;2023-03-12T02:02:47;101450.66;;;23.83;41.63
59409;BME280;45213;32.654;-115.458;2023-03-12T02:05:28;101443.53;;;23.84;41.33
59409;BME280;45213;32.654;-115.458;2023-03-12T02:07:55;101449.03;;;23.79;41.62
59409;BME280;45213;32.654;-115.458;2023-03-12T02:10:23;101452.78;;;23.72;42.14
59409;BME280;45213;32.654;-115.458;2023-03-12T02:12:51;101446.00;;;23.63;42.37
59409;BME280;45213;32.654;-115.458;2023-03-12T02:15:18;101443.56;;;23.57;42.15
59409;BME280;45213;32.654;-115.458;2023-03-12T02:17:45;101445.56;;;23.50;42.41
59409;BME280;45213;32.654;-115.458;2023-03-12T02:20:31;101443.84;;;23.49;42.15
59409;BME280;45213;32.654;-115.458;2023-03-12T02:23:11;101435.91;;;23.48;42.54
59409;BME280;45213;32.654;-115.458;2023-03-12T02:25:50;101435.34;;;23.38;42.47
59409;BME280;45213;32.654;-115.458;2023-03-12T02:28:20;101441.59;;;23.37;42.36
59409;BME280;45213;32.654;-115.458;2023-03-12T02:30:50;101428.38;;;23.35;42.30
59409;BME280;45213;32.654;-115.458;2023-03-12T02:33:19;101424.03;;;23.33;42.24
59409;BME280;45213;32.654;-115.458;2023-03-12T02:35:47;101430.41;;;23.27;42.18
59409;BME280;45213;32.654;-115.458;2023-03-12T02:40:57;101413.72;;;23.24;42.47
59409;BME280;45213;32.654;-115.458;2023-03-12T02:43:26;101404.41;;;23.10;42.91
59409;BME280;45213;32.654;-115.458;2023-03-12T02:45:54;101405.22;;;23.12;43.09
59409;BME280;45213;32.654;-115.458;2023-03-12T02:48:22;101408.78;;;23.11;43.23
59409;BME280;45213;32.654;-115.458;2023-03-12T02:50:48;101408.91;;;23.08;43.55
59409;BME280;45213;32.654;-115.458;2023-03-12T02:53:15;101421.25;;;23.09;43.46
59409;BME280;45213;32.654;-115.458;2023-03-12T02:55:41;101407.97;;;23.09;43.67
59409;BME280;45213;32.654;-115.458;2023-03-12T02:58:08;101423.13;;;23.07;43.60
59409;BME280;45213;32.654;-115.458;2023-03-12T03:00:35;101428.63;;;23.01;43.81
59409;BME280;45213;32.654;-115.458;2023-03-12T03:03:03;101425.31;;;22.93;43.51
59409;BME280;45213;32.654;-115.458;2023-03-12T03:05:29;101435.09;;;22.91;44.17
59409;BME280;45213;32.654;-115.458;2023-03-12T03:07:56;101444.91;;;22.89;44.07
59409;BME280;45213;32.654;-115.458;2023-03-12T03:10:23;101454.63;;;22.90;43.98
59409;BME280;45213;32.654;-115.458;2023-03-12T03:12:49;101456.50;;;22.86;43.94
59409;BME280;45213;32.654;-115.458;2023-03-12T03:15:16;101460.16;;;22.82;43.64
59409;BME280;45213;32.654;-115.458;2023-03-12T03:17:43;101467.34;;;22.80;43.91
59409;BME280;45213;32.654;-115.458;2023-03-12T03:20:10;101467.06;;;22.88;43.77
59409;BME280;45213;32.654;-115.458;2023-03-12T03:22:38;101479.72;;;22.80;44.05
59409;BME280;45213;32.654;-115.458;2023-03-12T03:25:05;101478.03;;;22.77;43.91
59409;BME280;45213;32.654;-115.458;2023-03-12T03:27:32;101481.75;;;22.71;44.05
59409;BME280;45213;32.654;-115.458;2023-03-12T03:29:59;101490.63;;;22.70;43.97
59409;BME280;45213;32.654;-115.458;2023-03-12T03:32:27;101491.50;;;22.71;44.09
59409;BME280;45213;32.654;-115.458;2023-03-12T03:34:53;101484.47;;;22.68;44.11
59409;BME280;45213;32.654;-115.458;2023-03-12T03:37:20;101488.16;;;22.64;43.97
59409;BME280;45213;32.654;-115.458;2023-03-12T03:39:47;101497.03;;;22.63;44.22
59409;BME280;45213;32.654;-115.458;2023-03-12T03:42:14;101491.91;;;22.57;44.55
59409;BME280;45213;32.654;-115.458;2023-03-12T03:44:42;101488.69;;;22.46;44.69
59409;BME280;45213;32.654;-115.458;2023-03-12T03:47:09;101499.22;;;22.49;44.59
59409;BME280;45213;32.654;-115.458;2023-03-12T03:49:35;101501.88;;;22.49;44.65
59409;BME280;45213;32.654;-115.458;2023-03-12T03:52:02;101502.88;;;22.45;44.78
59409;BME280;45213;32.654;-115.458;2023-03-12T03:54:33;101492.16;;;22.48;44.61
59409;BME280;45213;32.654;-115.458;2023-03-12T03:57:00;101494.97;;;22.43;44.63
59409;BME280;45213;32.654;-115.458;2023-03-12T03:59:27;101505.69;;;22.40;44.88
59409;BME280;45213;32.654;-115.458;2023-03-12T04:01:54;101506.63;;;22.38;44.69
59409;BME280;45213;32.654;-115.458;2023-03-12T04:04:21;101509.19;;;22.41;44.62
59409;BME280;45213;32.654;-115.458;2023-03-12T04:06:47;101510.88;;;22.43;44.29
59409;BME280;45213;32.654;-115.458;2023-03-12T04:09:14;101516.28;;;22.40;44.54
59409;BME280;45213;32.654;-115.458;2023-03-12T04:11:41;101526.09;;;22.37;44.50
59409;BME280;45213;32.654;-115.458;2023-03-12T04:14:10;101531.34;;;22.40;44.35
59409;BME280;45213;32.654;-115.458;2023-03-12T04:16:39;101529.69;;;22.36;44.32
59409;BME280;45213;32.654;-115.458;2023-03-12T04:19:05;101530.72;;;22.30;44.19
59409;BME280;45213;32.654;-115.458;2023-03-12T04:21:32;101528.13;;;22.28;44.08
59409;BME280;45213;32.654;-115.458;2023-03-12T04:23:59;101529.00;;;22.29;44.11
59409;BME280;45213;32.654;-115.458;2023-03-12T04:26:30;101531.59;;;22.30;44.03
59409;BME280;45213;32.654;-115.458;2023-03-12T04:28:56;101529.91;;;22.28;44.07
59409;BME280;45213;32.654;-115.458;2023-03-12T04:31:23;101532.69;;;22.23;44.14
59409;BME280;45213;32.654;-115.458;2023-03-12T04:33:50;101523.78;;;22.26;44.06
59409;BME280;45213;32.654;-115.458;2023-03-12T04:36:19;101522.00;;;22.26;44.21
59409;BME280;45213;32.654;-115.458;2023-03-12T04:38:48;101515.88;;;22.23;44.18
59409;BME280;45213;32.654;-115.458;2023-03-12T04:41:17;101522.34;;;22.13;44.24
59409;BME280;45213;32.654;-115.458;2023-03-12T04:43:58;101532.97;;;22.11;44.34
59409;BME280;45213;32.654;-115.458;2023-03-12T04:46:25;101534.88;;;22.07;44.35
59409;BME280;45213;32.654;-115.458;2023-03-12T04:48:52;101532.16;;;22.09;44.32
59409;BME280;45213;32.654;-115.458;2023-03-12T04:51:19;101535.88;;;22.02;44.31
59409;BME280;45213;32.654;-115.458;2023-03-12T04:53:45;101535.97;;;21.99;44.83
59409;BME280;45213;32.654;-115.458;2023-03-12T04:56:14;101529.00;;;21.95;44.53
59409;BME280;45213;32.654;-115.458;2023-03-12T04:58:42;101536.03;;;21.96;44.68
59409;BME280;45213;32.654;-115.458;2023-03-12T05:01:21;101537.84;;;21.94;44.86
59409;BME280;45213;32.654;-115.458;2023-03-12T05:03:52;101536.22;;;21.89;44.78
59409;BME280;45213;32.654;-115.458;2023-03-12T05:06:20;101538.88;;;21.89;44.71
59409;BME280;45213;32.654;-115.458;2023-03-12T05:08:47;101530.00;;;21.90;44.93
59409;BME280;45213;32.654;-115.458;2023-03-12T05:11:15;101535.28;;;21.90;44.79
59409;BME280;45213;32.654;-115.458;2023-03-12T05:13:42;101538.91;;;21.88;44.94
59409;BME280;45213;32.654;-115.458;2023-03-12T05:16:09;101541.53;;;21.89;44.96
59409;BME280;45213;32.654;-115.458;2023-03-12T05:18:37;101536.25;;;21.88;44.93
59409;BME280;45213;32.654;-115.458;2023-03-12T05:21:11;101532.78;;;21.84;44.90
59409;BME280;45213;32.654;-115.458;2023-03-12T05:23:38;101536.38;;;21.83;44.78
59409;BME280;45213;32.654;-115.458;2023-03-12T05:28:42;101541.66;;;21.83;45.05
59409;BME280;45213;32.654;-115.458;2023-03-12T05:31:10;101535.53;;;21.81;45.14
59409;BME280;45213;32.654;-115.458;2023-03-12T05:33:38;101540.00;;;21.79;45.40
59409;BME280;45213;32.654;-115.458;2023-03-12T05:36:05;101534.72;;;21.78;45.43
59409;BME280;45213;32.654;-115.458;2023-03-12T05:38:34;101530.44;;;21.74;45.42
59409;BME280;45213;32.654;-115.458;2023-03-12T05:41:01;101529.63;;;21.70;45.40
59409;BME280;45213;32.654;-115.458;2023-03-12T05:43:30;101527.06;;;21.67;45.62
59409;BME280;45213;32.654;-115.458;2023-03-12T05:45:59;101528.75;;;21.71;45.34
59409;BME280;45213;32.654;-115.458;2023-03-12T05:48:27;101529.63;;;21.70;45.62
59409;BME280;45213;32.654;-115.458;2023-03-12T05:50:54;101530.72;;;21.63;45.63
59409;BME280;45213;32.654;-115.458;2023-03-12T05:53:21;101532.53;;;21.61;45.53
59409;BME280;45213;32.654;-115.458;2023-03-12T05:55:48;101533.34;;;21.64;45.53
59409;BME280;45213;32.654;-115.458;2023-03-12T05:58:15;101536.97;;;21.60;45.74
59409;BME280;45213;32.654;-115.458;2023-03-12T06:00:42;101535.25;;;21.58;45.77
59409;BME280;45213;32.654;-115.458;2023-03-12T06:03:11;101531.84;;;21.53;45.93
59409;BME280;45213;32.654;-115.458;2023-03-12T06:05:38;101531.88;;;21.51;46.06
59409;BME280;45213;32.654;-115.458;2023-03-12T06:08:05;101547.81;;;21.50;45.81
59409;BME280;45213;32.654;-115.458;2023-03-12T06:10:33;101543.44;;;21.48;46.03
59409;BME280;45213;32.654;-115.458;2023-03-12T06:13:02;101526.63;;;21.50;45.93
59409;BME280;45213;32.654;-115.458;2023-03-12T06:15:30;101527.53;;;21.48;45.90
59409;BME280;45213;32.654;-115.458;2023-03-12T06:17:57;101522.16;;;21.52;45.88
59409;BME280;45213;32.654;-115.458;2023-03-12T06:20:23;101535.63;;;21.42;46.08
59409;BME280;45213;32.654;-115.458;2023-03-12T06:22:50;101544.44;;;21.43;45.94
59409;BME280;45213;32.654;-115.458;2023-03-12T06:25:17;101537.44;;;21.40;45.85
59409;BME280;45213;32.654;-115.458;2023-03-12T06:27:44;101540.06;;;21.42;45.84
59409;BME280;45213;32.654;-115.458;2023-03-12T06:30:11;101532.19;;;21.37;45.92
59409;BME280;45213;32.654;-115.458;2023-03-12T06:32:37;101541.88;;;21.38;45.87
59409;BME280;45213;32.654;-115.458;2023-03-12T06:35:04;101545.56;;;21.33;45.70
59409;BME280;45213;32.654;-115.458;2023-03-12T06:37:31;101544.75;;;21.29;45.83
59409;BME280;45213;32.654;-115.458;2023-03-12T06:39:58;101545.72;;;21.25;45.91
59409;BME280;45213;32.654;-115.458;2023-03-12T06:42:24;101550.16;;;21.23;45.93
59409;BME280;45213;32.654;-115.458;2023-03-12T06:44:51;101542.41;;;21.15;46.07
59409;BME280;45213;32.654;-115.458;2023-03-12T06:47:18;101547.72;;;21.14;46.21
59409;BME280;45213;32.654;-115.458;2023-03-12T06:49:45;101534.56;;;21.11;46.18
59409;BME280;45213;32.654;-115.458;2023-03-12T06:52:12;101552.28;;;21.09;46.37
59409;BME280;45213;32.654;-115.458;2023-03-12T06:54:38;101558.50;;;21.08;46.49
59409;BME280;45213;32.654;-115.458;2023-03-12T06:57:05;101553.31;;;21.01;46.93
59409;BME280;45213;32.654;-115.458;2023-03-12T06:59:31;101555.09;;;21.01;46.78
59409;BME280;45213;32.654;-115.458;2023-03-12T07:01:58;101555.31;;;20.92;47.38
59409;BME280;45213;32.654;-115.458;2023-03-12T07:04:25;101560.59;;;20.92;47.06
59409;BME280;45213;32.654;-115.458;2023-03-12T07:06:51;101556.09;;;20.95;46.94
59409;BME280;45213;32.654;-115.458;2023-03-12T07:09:19;101550.81;;;20.94;47.04
59409;BME280;45213;32.654;-115.458;2023-03-12T07:11:46;101560.50;;;20.96;46.67
59409;BME280;45213;32.654;-115.458;2023-03-12T07:14:12;101567.59;;;20.94;46.83
59409;BME280;45213;32.654;-115.458;2023-03-12T07:16:39;101567.72;;;20.90;46.90
59409;BME280;45213;32.654;-115.458;2023-03-12T07:19:05;101580.97;;;20.88;47.23
59409;BME280;45213;32.654;-115.458;2023-03-12T07:21:33;101589.81;;;20.87;47.07
59409;BME280;45213;32.654;-115.458;2023-03-12T07:23:59;101597.81;;;20.84;47.31
59409;BME280;45213;32.654;-115.458;2023-03-12T07:26:33;101588.16;;;20.81;47.36
59409;BME280;45213;32.654;-115.458;2023-03-12T07:29:01;101581.19;;;20.77;47.47
59409;BME280;45213;32.654;-115.458;2023-03-12T07:31:27;101576.81;;;20.76;47.20
59409;BME280;45213;32.654;-115.458;2023-03-12T07:33:54;101574.25;;;20.72;47.36
59409;BME280;45213;32.654;-115.458;2023-03-12T07:36:21;101578.63;;;20.73;47.45
59409;BME280;45213;32.654;-115.458;2023-03-12T07:38:47;101579.53;;;20.72;47.51
59409;BME280;45213;32.654;-115.458;2023-03-12T07:41:14;101582.13;;;20.75;47.42
59409;BME280;45213;32.654;-115.458;2023-03-12T07:43:40;101592.72;;;20.75;47.53
59409;BME280;45213;32.654;-115.458;2023-03-12T07:46:08;101576.81;;;20.75;47.22
59409;BME280;45213;32.654;-115.458;2023-03-12T07:48:34;101579.53;;;20.72;47.37
59409;BME280;45213;32.654;-115.458;2023-03-12T07:51:01;101573.38;;;20.71;47.23
59409;BME280;45213;32.654;-115.458;2023-03-12T07:53:27;101571.75;;;20.64;47.74
59409;BME280;45213;32.654;-115.458;2023-03-12T07:55:54;101579.53;;;20.72;47.37
59409;BME280;45213;32.654;-115.458;2023-03-12T07:58:21;101564.59;;;20.69;47.37
59409;BME280;45213;32.654;-115.458;2023-03-12T08:00:47;101571.56;;;20.73;47.11
59409;BME280;45213;32.654;-115.458;2023-03-12T08:03:15;101572.50;;;20.71;46.87
59409;BME280;45213;32.654;-115.458;2023-03-12T08:05:42;101576.03;;;20.71;47.18
59409;BME280;45213;32.654;-115.458;2023-03-12T08:08:08;101581.44;;;20.67;47.08
59409;BME280;45213;32.654;-115.458;2023-03-12T08:10:35;101584.94;;;20.65;47.14
59409;BME280;45213;32.654;-115.458;2023-03-12T08:13:02;101573.50;;;20.65;47.07
59409;BME280;45213;32.654;-115.458;2023-03-12T08:15:28;101570.94;;;20.60;47.18
59409;BME280;45213;32.654;-115.458;2023-03-12T08:17:55;101576.25;;;20.60;47.44
59409;BME280;45213;32.654;-115.458;2023-03-12T08:20:21;101577.19;;;20.55;47.46
59409;BME280;45213;32.654;-115.458;2023-03-12T08:22:48;101581.69;;;20.51;47.54
59409;BME280;45213;32.654;-115.458;2023-03-12T08:25:15;101574.63;;;20.50;47.57
59409;BME280;45213;32.654;-115.458;2023-03-12T08:27:43;101586.19;;;20.46;47.90
59409;BME280;45213;32.654;-115.458;2023-03-12T08:30:10;101592.38;;;20.45;47.70
59409;BME280;45213;32.654;-115.458;2023-03-12T08:32:38;101593.25;;;20.45;47.78
59409;BME280;45213;32.654;-115.458;2023-03-12T08:35:05;101588.81;;;20.46;47.93
59409;BME280;45213;32.654;-115.458;2023-03-12T08:37:31;101574.13;;;20.33;47.91
59409;BME280;45213;32.654;-115.458;2023-03-12T08:39:58;101579.25;;;20.40;47.96
59409;BME280;45213;32.654;-115.458;2023-03-12T08:42:25;101580.09;;;20.41;47.99
59409;BME280;45213;32.654;-115.458;2023-03-12T08:44:51;101577.47;;;20.41;48.11
59409;BME280;45213;32.654;-115.458;2023-03-12T08:47:18;101578.56;;;20.31;48.15
59409;BME280;45213;32.654;-115.458;2023-03-12T08:49:45;101582.09;;;20.30;48.05
59409;BME280;45213;32.654;-115.458;2023-03-12T08:52:11;101575.94;;;20.28;48.22
59409;BME280;45213;32.654;-115.458;2023-03-12T08:54:38;101579.53;;;20.25;47.83
59409;BME280;45213;32.654;-115.458;2023-03-12T08:57:04;101587.50;;;20.23;47.97
59409;BME280;45213;32.654;-115.458;2023-03-12T08:59:31;101585.81;;;20.19;47.95
59409;BME280;45213;32.654;-115.458;2023-03-12T09:01:57;101584.94;;;20.19;48.22
59409;BME280;45213;32.654;-115.458;2023-03-12T09:04:24;101582.38;;;20.14;48.20
59409;BME280;45213;32.654;-115.458;2023-03-12T09:06:50;101582.38;;;20.14;48.34
59409;BME280;45213;32.654;-115.458;2023-03-12T09:09:17;101589.50;;;20.09;48.35
59409;BME280;45213;32.654;-115.458;2023-03-12T09:11:43;101576.44;;;20.01;48.52
59409;BME280;45213;32.654;-115.458;2023-03-12T09:14:10;101579.09;;;20.00;48.32
59409;BME280;45213;32.654;-115.458;2023-03-12T09:16:37;101571.16;;;20.01;48.22
59409;BME280;45213;32.654;-115.458;2023-03-12T09:19:03;101573.88;;;19.97;48.31
59409;BME280;45213;32.654;-115.458;2023-03-12T09:21:30;101579.19;;;19.94;48.04
59409;BME280;45213;32.654;-115.458;2023-03-12T09:23:56;101573.91;;;19.94;47.96
59409;BME280;45213;32.654;-115.458;2023-03-12T09:26:23;101579.19;;;19.95;47.99
59409;BME280;45213;32.654;-115.458;2023-03-12T09:28:50;101575.59;;;19.98;47.79
59409;BME280;45213;32.654;-115.458;2023-03-12T09:31:16;101574.75;;;19.97;47.52
59409;BME280;45213;32.654;-115.458;2023-03-12T09:33:43;101582.75;;;19.94;47.75
59409;BME280;45213;32.654;-115.458;2023-03-12T09:36:10;101575.59;;;19.98;47.50
59409;BME280;45213;32.654;-115.458;2023-03-12T09:38:36;101568.59;;;19.97;47.69
59409;BME280;45213;32.654;-115.458;2023-03-12T09:41:04;101577.44;;;19.94;47.42
59409;BME280;45213;32.654;-115.458;2023-03-12T09:43:56;101575.84;;;19.86;47.66
59409;BME280;45213;32.654;-115.458;2023-03-12T09:46:51;101576.69;;;19.88;47.50
59409;BME280;45213;32.654;-115.458;2023-03-12T09:51:57;101580.34;;;19.80;47.47
59409;BME280;45213;32.654;-115.458;2023-03-12T09:54:37;101580.41;;;19.76;47.93
59409;BME280;45213;32.654;-115.458;2023-03-12T09:57:11;101582.22;;;19.71;47.92
59409;BME280;45213;32.654;-115.458;2023-03-12T09:59:40;101583.13;;;19.68;48.06
59409;BME280;45213;32.654;-115.458;2023-03-12T10:05:38;101573.53;;;19.63;47.58
59409;BME280;45213;32.654;-115.458;2023-03-12T10:26:46;101565.50;;;19.70;46.10
59409;BME280;45213;32.654;-115.458;2023-03-12T10:29:25;101557.63;;;19.67;46.02
59409;BME280;45213;32.654;-115.458;2023-03-12T10:32:03;101554.13;;;19.64;46.33
59409;BME280;45213;32.654;-115.458;2023-03-12T10:34:46;101548.03;;;19.60;46.48
59409;BME280;45213;32.654;-115.458;2023-03-12T10:37:21;101548.19;;;19.51;45.91
59409;BME280;45213;32.654;-115.458;2023-03-12T10:39:50;101553.56;;;19.45;46.61
59409;BME280;45213;32.654;-115.458;2023-03-12T10:42:23;101557.16;;;19.40;46.86
59409;BME280;45213;32.654;-115.458;2023-03-12T10:44:54;101554.59;;;19.34;46.82
59409;BME280;45213;32.654;-115.458;2023-03-12T10:47:38;101560.84;;;19.30;47.33
59409;BME280;45213;32.654;-115.458;2023-03-12T10:52:38;101555.56;;;19.30;48.10
59409;BME280;45213;32.654;-115.458;2023-03-12T10:55:28;101551.16;;;19.28;48.17
59409;BME280;45213;32.654;-115.458;2023-03-12T10:57:55;101541.63;;;19.19;49.64
59409;BME280;45213;32.654;-115.458;2023-03-12T11:00:26;101540.91;;;19.08;49.27
59409;BME280;45213;32.654;-115.458;2023-03-12T11:03:01;101546.28;;;19.00;49.57
59409;BME280;45213;32.654;-115.458;2023-03-12T11:05:35;101543.84;;;18.86;50.00
59409;BME280;45213;32.654;-115.458;2023-03-12T11:08:21;101543.94;;;18.78;50.85
59409;BME280;45213;32.654;-115.458;2023-03-12T11:10:52;101546.63;;;18.72;50.79
59409;BME280;45213;32.654;-115.458;2023-03-12T11:13:24;101546.75;;;18.63;51.21
59409;BME280;45213;32.654;-115.458;2023-03-12T11:15:52;101543.34;;;18.53;51.20
59409;BME280;45213;32.654;-115.458;2023-03-12T11:18:29;101530.16;;;18.53;51.31
59409;BME280;45213;32.654;-115.458;2023-03-12T11:23:37;101531.97;;;18.48;50.93
59409;BME280;45213;32.654;-115.458;2023-03-12T11:26:20;101525.88;;;18.42;50.35
59409;BME280;45213;32.654;-115.458;2023-03-12T11:28:55;101531.13;;;18.46;49.98
59409;BME280;45213;32.654;-115.458;2023-03-12T11:34:02;101509.13;;;18.49;49.32
59409;BME280;45213;32.654;-115.458;2023-03-12T11:48:04;101521.28;;;18.57;50.26
59409;BME280;45213;32.654;-115.458;2023-03-12T11:51:17;101514.34;;;18.50;50.63
59409;BME280;45213;32.654;-115.458;2023-03-12T12:08:35;101540.19;;;18.22;50.33
59409;BME280;45213;32.654;-115.458;2023-03-12T12:11:16;101529.63;;;18.22;50.39
59409;BME280;45213;32.654;-115.458;2023-03-12T12:25:02;101542.91;;;18.10;51.79
59409;BME280;45213;32.654;-115.458;2023-03-12T12:28:03;101548.28;;;18.02;51.29
59409;BME280;45213;32.654;-115.458;2023-03-12T12:35:43;101555.31;;;18.00;51.74
59409;BME280;45213;32.654;-115.458;2023-03-12T12:43:41;101567.81;;;17.83;52.62
59409;BME280;45213;32.654;-115.458;2023-03-12T12:46:21;101560.78;;;17.75;52.97
59409;BME280;45213;32.654;-115.458;2023-03-12T12:49:00;101562.56;;;17.70;53.71
59409;BME280;45213;32.654;-115.458;2023-03-12T12:51:42;101566.13;;;17.69;53.78
59409;BME280;45213;32.654;-115.458;2023-03-12T12:57:09;101580.16;;;17.71;54.22
59409;BME280;45213;32.654;-115.458;2023-03-12T13:02:26;101594.25;;;17.63;54.98
59409;BME280;45213;32.654;-115.458;2023-03-12T13:04:58;101600.44;;;17.57;55.55
59409;BME280;45213;32.654;-115.458;2023-03-12T13:09:56;101605.84;;;17.32;56.40
59409;BME280;45213;32.654;-115.458;2023-03-12T13:12:30;101601.53;;;17.22;56.64
59409;BME280;45213;32.654;-115.458;2023-03-12T13:14:59;101611.19;;;17.19;57.47
59409;BME280;45213;32.654;-115.458;2023-03-12T13:20:27;101615.56;;;17.21;57.00
59409;BME280;45213;32.654;-115.458;2023-03-12T13:33:47;101618.34;;;16.92;58.55
59409;BME280;45213;32.654;-115.458;2023-03-12T13:39:34;101629.72;;;16.89;58.11
59409;BME280;45213;32.654;-115.458;2023-03-12T13:42:25;101623.59;;;16.94;57.46
59409;BME280;45213;32.654;-115.458;2023-03-12T13:44:54;101629.72;;;16.97;57.51
59409;BME280;45213;32.654;-115.458;2023-03-12T13:47:36;101637.63;;;16.99;58.17
59409;BME280;45213;32.654;-115.458;2023-03-12T13:50:03;101636.75;;;16.94;58.90
59409;BME280;45213;32.654;-115.458;2023-03-12T13:52:49;101641.16;;;16.88;59.45
59409;BME280;45213;32.654;-115.458;2023-03-12T13:55:31;101636.81;;;16.83;59.34
59409;BME280;45213;32.654;-115.458;2023-03-12T13:58:14;101646.41;;;16.73;59.28
59409;BME280;45213;32.654;-115.458;2023-03-12T14:03:38;101652.59;;;16.63;59.30
59409;BME280;45213;32.654;-115.458;2023-03-12T14:06:20;101653.44;;;16.68;58.85
59409;BME280;45213;32.654;-115.458;2023-03-12T14:17:35;101661.28;;;16.97;59.16
59409;BME280;45213;32.654;-115.458;2023-03-12T14:20:14;101658.66;;;17.03;57.92
59409;BME280;45213;32.654;-115.458;2023-03-12T14:22:44;101662.09;;;17.13;58.02
59409;BME280;45213;32.654;-115.458;2023-03-12T14:25:24;101663.78;;;17.31;57.22
59409;BME280;45213;32.654;-115.458;2023-03-12T14:27:54;101670.75;;;17.37;56.91
59409;BME280;45213;32.654;-115.458;2023-03-12T14:30:35;101677.75;;;17.44;56.75
59409;BME280;45213;32.654;-115.458;2023-03-12T14:33:03;101689.16;;;17.46;56.51
59409;BME280;45213;32.654;-115.458;2023-03-12T14:35:39;101690.03;;;17.49;56.39